createdAt,value
2018-07-17T00:00:16.938Z,19.98
2018-07-17T00:02:45.433Z,19.97
2018-07-17T00:05:14.021Z,20.00
2018-07-17T00:07:42.486Z,19.94
2018-07-17T00:10:10.974Z,20.04
2018-07-17T00:12:39.468Z,20.10
2018-07-17T00:15:07.930Z,20.02
2018-07-17T00:17:36.893Z,20.03
2018-07-17T00:20:05.384Z,19.99
2018-07-17T00:22:33.849Z,19.99
2018-07-17T00:25:02.847Z,19.90
2018-07-17T00:27:31.313Z,19.99
2018-07-17T00:29:59.789Z,20.05
2018-07-17T00:32:28.237Z,20.02
2018-07-17T00:34:56.710Z,20.05
2018-07-17T00:37:25.334Z,20.04
2018-07-17T00:39:53.768Z,20.00
2018-07-17T00:42:22.209Z,19.91
2018-07-17T00:44:50.634Z,19.81
2018-07-17T00:47:19.073Z,19.74
2018-07-17T00:49:47.515Z,19.64
2018-07-17T00:52:15.978Z,19.49
2018-07-17T00:54:44.466Z,19.48
2018-07-17T00:57:12.977Z,19.38
2018-07-17T00:59:41.402Z,19.29
2018-07-17T01:02:14.982Z,19.21
2018-07-17T01:04:48.757Z,19.22
2018-07-17T01:07:22.533Z,19.14
2018-07-17T01:09:56.158Z,19.15
2018-07-17T01:12:23.750Z,19.13
2018-07-17T01:14:54.626Z,19.16
2018-07-17T01:17:23.501Z,19.09
2018-07-17T01:19:52.012Z,18.98
2018-07-17T01:22:20.457Z,18.99
2018-07-17T01:24:48.938Z,18.87
2018-07-17T01:27:17.371Z,18.78
2018-07-17T01:29:45.802Z,18.61
2018-07-17T01:32:14.283Z,18.53
2018-07-17T01:34:42.921Z,18.56
2018-07-17T01:37:11.353Z,18.58
2018-07-17T01:39:39.867Z,18.53
2018-07-17T01:42:08.301Z,18.53
2018-07-17T01:44:36.757Z,18.55
2018-07-17T01:47:05.221Z,18.59
2018-07-17T01:49:33.643Z,18.71
2018-07-17T01:52:02.058Z,18.74
2018-07-17T01:54:31.441Z,18.82
2018-07-17T01:56:59.896Z,18.81
2018-07-17T01:59:28.639Z,18.90
2018-07-17T02:01:57.020Z,18.62
2018-07-17T02:04:25.454Z,18.46
2018-07-17T02:06:53.890Z,18.26
2018-07-17T02:09:22.369Z,17.90
2018-07-17T02:11:50.993Z,17.82
2018-07-17T02:14:19.509Z,17.71
2018-07-17T02:16:47.904Z,17.68
2018-07-17T02:19:16.337Z,17.63
2018-07-17T02:21:44.713Z,17.74
2018-07-17T02:24:13.126Z,17.79
2018-07-17T02:26:41.557Z,17.72
2018-07-17T02:29:10.007Z,17.89
2018-07-17T02:31:38.598Z,18.04
2018-07-17T02:34:07.122Z,18.05
2018-07-17T02:36:35.522Z,18.18
2018-07-17T02:39:04.150Z,18.12
2018-07-17T02:41:32.547Z,18.26
2018-07-17T02:44:00.998Z,18.36
2018-07-17T02:46:29.385Z,18.16
2018-07-17T02:48:57.823Z,17.89
2018-07-17T02:51:26.295Z,17.91
2018-07-17T02:53:54.722Z,18.05
2018-07-17T02:56:23.216Z,18.10
2018-07-17T02:58:51.665Z,18.16
2018-07-17T03:01:20.095Z,18.11
2018-07-17T03:03:48.623Z,18.10
2018-07-17T03:06:17.053Z,18.17
2018-07-17T03:08:45.527Z,18.59
2018-07-17T03:11:13.965Z,18.63
2018-07-17T03:13:42.441Z,18.63
2018-07-17T03:16:10.874Z,18.68
2018-07-17T03:18:39.293Z,18.66
2018-07-17T03:21:07.882Z,18.70
2018-07-17T03:23:36.381Z,18.68
2018-07-17T03:26:04.854Z,18.59
2018-07-17T03:28:33.287Z,18.54
2018-07-17T03:31:01.846Z,18.50
2018-07-17T03:33:30.317Z,18.51
2018-07-17T03:35:58.766Z,18.54
2018-07-17T03:38:27.221Z,18.61
2018-07-17T03:40:55.741Z,18.61
2018-07-17T03:43:24.149Z,18.58
2018-07-17T03:45:52.617Z,18.61
2018-07-17T03:48:21.086Z,18.52
2018-07-17T03:50:49.523Z,18.45
2018-07-17T03:53:17.937Z,18.52
2018-07-17T03:55:46.401Z,18.56
2018-07-17T03:58:14.833Z,18.51
2018-07-17T04:00:43.273Z,18.51
2018-07-17T04:03:11.739Z,18.51
2018-07-17T04:05:40.205Z,18.55
2018-07-17T04:08:08.652Z,18.50
2018-07-17T04:10:37.114Z,18.45
2018-07-17T04:13:05.785Z,18.46
2018-07-17T04:15:34.341Z,18.45
2018-07-17T04:18:02.818Z,18.53
2018-07-17T04:20:31.282Z,18.53
2018-07-17T04:22:59.819Z,18.48
2018-07-17T04:25:28.265Z,18.50
2018-07-17T04:27:56.784Z,18.44
2018-07-17T04:30:25.258Z,18.46
2018-07-17T04:32:53.865Z,18.52
2018-07-17T04:35:22.321Z,18.55
2018-07-17T04:37:50.773Z,18.56
2018-07-17T04:40:19.237Z,18.62
2018-07-17T04:42:47.697Z,18.77
2018-07-17T04:45:16.149Z,18.89
2018-07-17T04:47:44.577Z,19.03
2018-07-17T04:50:13.034Z,18.99
2018-07-17T04:52:41.698Z,19.17
2018-07-17T04:55:10.133Z,19.13
2018-07-17T04:57:38.555Z,19.32
2018-07-17T05:00:06.982Z,19.20
2018-07-17T05:02:35.470Z,19.35
2018-07-17T05:05:04.043Z,19.65
2018-07-17T05:07:32.482Z,19.79
2018-07-17T05:10:00.976Z,19.87
2018-07-17T05:12:29.407Z,19.95
2018-07-17T05:14:57.823Z,19.97
2018-07-17T05:17:26.222Z,20.17
2018-07-17T05:19:54.652Z,20.36
2018-07-17T05:22:23.092Z,20.57
2018-07-17T05:24:51.500Z,20.74
2018-07-17T05:27:19.976Z,20.86
2018-07-17T05:29:48.410Z,20.95
2018-07-17T05:32:16.858Z,21.01
2018-07-17T05:34:45.247Z,21.11
2018-07-17T05:37:13.670Z,21.50
2018-07-17T05:39:42.129Z,21.39
2018-07-17T05:42:10.594Z,21.41
2018-07-17T05:44:39.345Z,20.80
2018-07-17T05:47:07.974Z,20.68
2018-07-17T05:49:36.380Z,20.62
2018-07-17T05:52:04.930Z,20.81
2018-07-17T05:54:33.236Z,20.93
2018-07-17T05:57:01.759Z,20.84
2018-07-17T05:59:30.197Z,21.01
2018-07-17T06:01:58.735Z,20.98
2018-07-17T06:04:27.159Z,21.11
2018-07-17T06:06:55.661Z,21.50
2018-07-17T06:09:24.096Z,21.98
2018-07-17T06:11:52.570Z,22.16
2018-07-17T06:14:21.000Z,22.09
2018-07-17T06:16:49.447Z,22.19
2018-07-17T06:19:17.849Z,22.06
2018-07-17T06:21:48.498Z,22.12
2018-07-17T06:24:16.953Z,22.42
2018-07-17T06:26:45.469Z,22.50
2018-07-17T06:29:13.961Z,22.81
2018-07-17T06:31:42.430Z,22.75
2018-07-17T06:34:10.882Z,22.83
2018-07-17T06:36:39.346Z,22.78
2018-07-17T06:39:08.765Z,23.00
2018-07-17T06:41:37.221Z,22.95
2018-07-17T06:44:05.764Z,23.24
2018-07-17T06:46:34.318Z,23.19
2018-07-17T06:49:02.776Z,22.83
2018-07-17T06:51:31.265Z,23.07
2018-07-17T06:53:59.805Z,23.28
2018-07-17T06:56:28.269Z,23.28
2018-07-17T06:58:56.764Z,23.68
2018-07-17T07:01:25.212Z,23.95
2018-07-17T07:03:53.776Z,23.84
2018-07-17T07:06:22.359Z,23.97
2018-07-17T07:08:50.828Z,24.04
2018-07-17T07:11:19.345Z,24.00
2018-07-17T07:13:47.959Z,23.51
2018-07-17T07:16:16.466Z,23.76
2018-07-17T07:18:45.122Z,23.75
2018-07-17T07:21:13.592Z,23.66
2018-07-17T07:23:42.165Z,23.59
2018-07-17T07:26:10.618Z,23.60
2018-07-17T07:28:39.060Z,23.57
2018-07-17T07:31:07.525Z,23.88
2018-07-17T07:33:35.989Z,23.77
2018-07-17T07:36:04.475Z,23.81
2018-07-17T07:38:32.945Z,24.10
2018-07-17T07:41:01.357Z,24.20
2018-07-17T07:43:29.913Z,23.71
2018-07-17T07:45:58.345Z,23.78
2018-07-17T07:48:26.809Z,23.91
2018-07-17T07:50:55.278Z,24.16
2018-07-17T07:53:23.772Z,23.82
2018-07-17T07:55:52.247Z,23.77
2018-07-17T07:58:20.782Z,23.33
2018-07-17T08:00:49.209Z,23.26
2018-07-17T08:03:17.736Z,23.78
2018-07-17T08:05:46.157Z,23.34
2018-07-17T08:08:14.650Z,23.67
2018-07-17T08:10:43.093Z,23.65
2018-07-17T08:13:11.547Z,23.70
2018-07-17T08:15:40.166Z,24.10
2018-07-17T08:18:08.675Z,23.63
2018-07-17T08:20:37.115Z,23.99
2018-07-17T08:23:05.595Z,24.29
2018-07-17T08:25:34.097Z,24.43
2018-07-17T08:28:02.649Z,24.17
2018-07-17T08:30:31.057Z,24.71
2018-07-17T08:32:59.557Z,24.75
2018-07-17T08:35:28.057Z,24.67
2018-07-17T08:37:56.590Z,25.07
2018-07-17T08:40:25.078Z,25.05
2018-07-17T08:42:53.551Z,25.14
2018-07-17T08:45:22.005Z,25.06
2018-07-17T08:47:50.496Z,25.96
2018-07-17T08:50:18.967Z,25.28
2018-07-17T08:52:47.439Z,25.56
2018-07-17T08:55:15.848Z,24.97
2018-07-17T08:57:44.315Z,25.69
2018-07-17T09:00:12.741Z,25.85
2018-07-17T09:02:41.197Z,25.24
2018-07-17T09:05:09.780Z,25.93
2018-07-17T09:07:38.942Z,26.04
2018-07-17T09:10:07.433Z,25.83
2018-07-17T09:12:35.899Z,26.55
2018-07-17T09:15:04.394Z,26.96
2018-07-17T09:17:32.819Z,26.95
2018-07-17T09:20:01.864Z,26.82
2018-07-17T09:22:30.322Z,26.88
2018-07-17T09:25:00.838Z,26.53
2018-07-17T09:27:29.304Z,26.13
2018-07-17T09:29:57.729Z,25.97
2018-07-17T09:32:26.335Z,26.58
2018-07-17T09:34:54.752Z,26.34
2018-07-17T09:37:24.365Z,26.05
2018-07-17T09:39:52.773Z,26.23
2018-07-17T09:42:21.222Z,25.95
2018-07-17T09:44:49.638Z,26.10
2018-07-17T09:47:18.045Z,26.17
2018-07-17T09:49:46.522Z,25.78
2018-07-17T09:52:14.898Z,25.82
2018-07-17T09:54:43.296Z,25.82
2018-07-17T09:57:11.745Z,26.02
2018-07-17T09:59:40.189Z,25.53
2018-07-17T10:02:13.961Z,26.17
2018-07-17T10:04:42.559Z,26.68
2018-07-17T10:07:10.967Z,26.40
2018-07-17T10:09:39.456Z,26.85
2018-07-17T10:12:07.925Z,26.92
2018-07-17T10:14:36.475Z,27.48
2018-07-17T10:17:04.906Z,27.30
2018-07-17T10:19:33.368Z,27.50
2018-07-17T10:22:01.782Z,27.49
2018-07-17T10:24:30.257Z,27.25
2018-07-17T10:26:58.710Z,27.30
2018-07-17T10:29:27.132Z,27.34
2018-07-17T10:31:55.570Z,27.93
2018-07-17T10:34:24.017Z,27.64
2018-07-17T10:36:52.455Z,27.20
2018-07-17T10:39:20.854Z,26.97
2018-07-17T10:41:49.288Z,26.90
2018-07-17T10:44:17.710Z,27.19
2018-07-17T10:46:46.133Z,26.92
2018-07-17T10:49:14.565Z,27.09
2018-07-17T10:51:43.017Z,26.98
2018-07-17T10:54:11.502Z,27.38
2018-07-17T10:56:41.033Z,28.30
2018-07-17T10:59:09.491Z,28.59
2018-07-17T11:01:37.887Z,28.24
2018-07-17T11:04:07.292Z,27.88
2018-07-17T11:06:35.674Z,28.30
2018-07-17T11:09:04.556Z,28.46
2018-07-17T11:11:32.960Z,28.38
2018-07-17T11:14:01.393Z,28.44
2018-07-17T11:16:29.797Z,29.04
2018-07-17T11:18:58.232Z,29.13
2018-07-17T11:21:26.654Z,28.96
2018-07-17T11:23:55.093Z,29.35
2018-07-17T11:26:23.461Z,29.48
2018-07-17T11:28:51.850Z,29.25
2018-07-17T11:31:20.262Z,29.03
2018-07-17T11:33:48.662Z,28.66
2018-07-17T11:36:17.042Z,28.61
2018-07-17T11:38:45.469Z,29.01
2018-07-17T11:41:13.889Z,29.38
2018-07-17T11:43:42.381Z,29.12
2018-07-17T11:46:10.820Z,29.24
2018-07-17T11:48:39.241Z,29.15
2018-07-17T11:51:07.711Z,28.68
2018-07-17T11:53:36.209Z,28.65
2018-07-17T11:56:04.685Z,29.27
2018-07-17T11:58:33.158Z,28.48
2018-07-17T12:01:01.590Z,28.43
2018-07-17T12:03:30.118Z,28.34
2018-07-17T12:05:58.630Z,28.18
2018-07-17T12:08:27.050Z,27.98
2018-07-17T12:10:55.518Z,29.45
2018-07-17T12:13:23.913Z,29.01
2018-07-17T12:15:52.366Z,29.70
2018-07-17T12:18:21.767Z,29.62
2018-07-17T12:20:50.220Z,29.76
2018-07-17T12:23:18.712Z,29.21
2018-07-17T12:25:47.178Z,29.55
2018-07-17T12:28:15.793Z,29.84
2018-07-17T12:30:44.304Z,29.77
2018-07-17T12:33:13.138Z,29.43
2018-07-17T12:35:41.597Z,30.70
2018-07-17T12:38:10.101Z,31.07
2018-07-17T12:40:39.182Z,29.96
2018-07-17T12:43:07.598Z,29.54
2018-07-17T12:45:36.055Z,29.36
2018-07-17T12:48:04.522Z,29.12
2018-07-17T12:50:33.244Z,28.18
2018-07-17T12:53:01.897Z,28.94
2018-07-17T12:55:30.325Z,28.63
2018-07-17T12:57:58.778Z,29.24
2018-07-17T13:00:27.273Z,29.60
2018-07-17T13:02:55.748Z,30.77
2018-07-17T13:05:24.229Z,29.59
2018-07-17T13:07:52.670Z,29.93
2018-07-17T13:10:21.133Z,30.11
2018-07-17T13:12:49.541Z,29.83
2018-07-17T13:15:18.085Z,29.28
2018-07-17T13:17:46.561Z,28.86
2018-07-17T13:20:15.042Z,28.87
2018-07-17T13:22:43.448Z,28.87
2018-07-17T13:25:11.965Z,29.38
2018-07-17T13:27:40.379Z,29.76
2018-07-17T13:30:09.080Z,30.06
2018-07-17T13:32:37.525Z,31.52
2018-07-17T13:35:06.017Z,29.86
2018-07-17T13:37:34.520Z,29.39
2018-07-17T13:40:02.983Z,29.03
2018-07-17T13:42:31.422Z,28.95
2018-07-17T13:44:59.865Z,29.30
2018-07-17T13:47:28.312Z,29.71
2018-07-17T13:49:56.830Z,29.43
2018-07-17T13:52:25.326Z,30.03
2018-07-17T13:54:53.802Z,30.51
2018-07-17T13:57:22.334Z,30.80
2018-07-17T13:59:50.781Z,31.44
2018-07-17T14:02:19.262Z,31.39
2018-07-17T14:04:47.645Z,31.31
2018-07-17T14:07:16.089Z,31.05
2018-07-17T14:09:44.572Z,30.50
2018-07-17T14:12:13.065Z,30.25
2018-07-17T14:14:41.530Z,30.07
2018-07-17T14:17:10.019Z,32.47
2018-07-17T14:19:38.441Z,30.75
2018-07-17T14:22:06.913Z,31.32
2018-07-17T14:24:35.409Z,32.16
2018-07-17T14:27:03.875Z,32.69
2018-07-17T14:29:32.733Z,33.42
2018-07-17T14:32:01.258Z,33.12
2018-07-17T14:34:29.721Z,32.73
2018-07-17T14:36:58.227Z,32.67
2018-07-17T14:39:26.673Z,31.66
2018-07-17T14:41:55.153Z,31.04
2018-07-17T14:44:23.933Z,31.32
2018-07-17T14:46:52.356Z,31.61
2018-07-17T14:49:20.810Z,31.75
2018-07-17T14:51:49.279Z,30.30
2018-07-17T14:54:17.730Z,30.47
2018-07-17T14:56:46.145Z,29.78
2018-07-17T14:59:14.532Z,29.39
2018-07-17T15:01:42.963Z,29.48
2018-07-17T15:04:11.379Z,29.64
2018-07-17T15:06:39.812Z,30.20
2018-07-17T15:09:09.120Z,30.41
2018-07-17T15:11:37.607Z,30.27
2018-07-17T15:14:06.078Z,31.39
2018-07-17T15:16:34.475Z,30.55
2018-07-17T15:19:02.861Z,32.06
2018-07-17T15:21:31.261Z,31.80
2018-07-17T15:24:00.505Z,31.36
2018-07-17T15:26:28.993Z,31.66
2018-07-17T15:28:57.401Z,30.28
2018-07-17T15:31:25.797Z,29.87
2018-07-17T15:33:54.182Z,29.96
2018-07-17T15:36:22.613Z,29.44
2018-07-17T15:38:51.157Z,29.86
2018-07-17T15:41:19.617Z,30.54
2018-07-17T15:43:48.149Z,32.26
2018-07-17T15:46:16.634Z,31.26
2018-07-17T15:48:45.726Z,30.48
2018-07-17T15:51:14.225Z,30.97
2018-07-17T15:53:43.539Z,29.35
2018-07-17T15:56:12.110Z,28.99
2018-07-17T15:58:40.622Z,28.73
2018-07-17T16:01:09.085Z,28.73
2018-07-17T16:03:37.554Z,28.79
2018-07-17T16:06:06.044Z,29.04
2018-07-17T16:08:34.609Z,29.94
2018-07-17T16:11:03.205Z,29.27
2018-07-17T16:13:31.721Z,28.78
2018-07-17T16:16:00.119Z,28.44
2018-07-17T16:18:28.578Z,28.13
2018-07-17T16:20:57.025Z,28.07
2018-07-17T16:23:33.802Z,27.73
2018-07-17T16:26:02.350Z,27.53
2018-07-17T16:28:31.090Z,25.77
2018-07-17T16:30:59.476Z,22.44
